Time;durP1;ratioP1;P1;durP2;ratioP2;P2;SDS_P1;SDS_P2;PMS_P1;PMS_P2;Temp;Humidity;BMP_temperature;BMP_pressure;BME280_temperature;BME280_humidity;BME280_pressure;Samples;Min_cycle;Max_cycle;Signal;HPM_P1;HPM_P2
2023/09/23 00:00:49;;;;;;;0.90;0.57;;;;;;;;;;5005950;28;20211;-48
2023/09/23 00:03:16;;;;;;;1.15;0.60;;;;;;;;;;5007623;28;20306;-47
2023/09/23 00:05:43;;;;;;;0.88;0.60;;;;;;;;;;4998466;28;20717;-48
2023/09/23 00:08:10;;;;;;;0.70;0.70;;;;;;;;;;5000482;28;20592;-48
2023/09/23 00:10:37;;;;;;;1.48;0.75;;;;;;;;;;4997854;28;20201;-48
2023/09/23 00:13:02;;;;;;;0.93;0.70;;;;;;;;;;4996216;28;20208;-49
2023/09/23 00:15:29;;;;;;;1.15;0.75;;;;;;;;;;5004330;28;20204;-48
2023/09/23 00:17:55;;;;;;;0.52;0.52;;;;;;;;;;5002618;28;20215;-49
2023/09/23 00:20:22;;;;;;;0.98;0.70;;;;;;;;;;4995179;28;20494;-47
2023/09/23 00:22:48;;;;;;;0.57;0.52;;;;;;;;;;4997323;28;20193;-48
2023/09/23 00:25:18;;;;;;;0.50;0.50;;;;;;;;;;5008753;28;20192;-48
2023/09/23 00:27:44;;;;;;;1.00;0.70;;;;;;;;;;5002245;28;20367;-49
2023/09/23 00:30:12;;;;;;;0.50;0.50;;;;;;;;;;5006758;28;20180;-48
2023/09/23 00:32:39;;;;;;;0.93;0.50;;;;;;;;;;4994448;28;20208;-48
2023/09/23 00:35:06;;;;;;;1.10;0.80;;;;;;;;;;5005846;28;20181;-48
2023/09/23 00:37:33;;;;;;;0.63;0.60;;;;;;;;;;4994464;28;20433;-48
2023/09/23 00:39:59;;;;;;;1.23;1.13;;;;;;;;;;4984270;28;20173;-49
2023/09/23 00:42:25;;;;;;;0.65;0.50;;;;;;;;;;4997910;28;20189;-49
2023/09/23 00:44:50;;;;;;;1.02;0.70;;;;;;;;;;4995237;28;20228;-48
2023/09/23 00:47:17;;;;;;;0.77;0.60;;;;;;;;;;5013294;28;20180;-48
2023/09/23 00:49:44;;;;;;;1.30;0.60;;;;;;;;;;5009057;28;20248;-48
2023/09/23 00:52:10;;;;;;;0.60;0.60;;;;;;;;;;5002820;28;20205;-48
2023/09/23 00:54:41;;;;;;;0.50;0.50;;;;;;;;;;5002851;28;20185;-48
2023/09/23 00:57:07;;;;;;;2.13;0.52;;;;;;;;;;4996992;28;20174;-48
2023/09/23 00:59:35;;;;;;;0.50;0.50;;;;;;;;;;4993840;28;20193;-49
2023/09/23 01:02:01;;;;;;;0.65;0.65;;;;;;;;;;5005633;28;20189;-49
2023/09/23 01:04:27;;;;;;;0.60;0.60;;;;;;;;;;4996812;28;20185;-49
2023/09/23 01:06:53;;;;;;;0.73;0.60;;;;;;;;;;5000246;28;20236;-49
2023/09/23 01:09:21;;;;;;;0.63;0.60;;;;;;;;;;5001051;28;20181;-49
2023/09/23 01:11:50;;;;;;;1.02;0.80;;;;;;;;;;4997062;28;20487;-48
2023/09/23 01:14:21;;;;;;;1.13;0.70;;;;;;;;;;4989755;28;20457;-48
2023/09/23 01:16:47;;;;;;;2.75;0.68;;;;;;;;;;5006104;28;20288;-48
2023/09/23 01:19:14;;;;;;;0.80;0.50;;;;;;;;;;4998678;28;20193;-48
2023/09/23 01:21:40;;;;;;;0.85;0.63;;;;;;;;;;5005616;28;20481;-48
2023/09/23 01:24:06;;;;;;;1.77;0.60;;;;;;;;;;4998729;28;20188;-50
2023/09/23 01:26:34;;;;;;;0.90;0.57;;;;;;;;;;5001246;28;20267;-47
2023/09/23 01:29:00;;;;;;;1.00;0.57;;;;;;;;;;4986787;28;20189;-47
2023/09/23 01:31:29;;;;;;;1.63;1.08;;;;;;;;;;4994428;28;20424;-48
2023/09/23 01:33:55;;;;;;;0.50;0.50;;;;;;;;;;4995781;28;20185;-48
2023/09/23 01:36:21;;;;;;;0.60;0.50;;;;;;;;;;4998944;28;20448;-48
2023/09/23 01:38:48;;;;;;;1.17;0.60;;;;;;;;;;4996456;28;20186;-49
2023/09/23 01:41:16;;;;;;;1.50;1.00;;;;;;;;;;4997010;28;20235;-48
2023/09/23 01:43:41;;;;;;;0.85;0.80;;;;;;;;;;5003925;28;20181;-48
2023/09/23 01:46:07;;;;;;;0.55;0.55;;;;;;;;;;4993324;28;20568;-49
2023/09/23 01:48:34;;;;;;;0.50;0.50;;;;;;;;;;4983938;28;20587;-48
2023/09/23 01:51:00;;;;;;;0.93;0.73;;;;;;;;;;5003749;28;20463;-49
2023/09/23 01:53:28;;;;;;;0.60;0.50;;;;;;;;;;5004769;28;20453;-48
2023/09/23 01:55:54;;;;;;;0.43;0.43;;;;;;;;;;4999929;28;20185;-48
2023/09/23 01:58:22;;;;;;;0.38;0.38;;;;;;;;;;4995414;28;20192;-48
2023/09/23 02:00:48;;;;;;;1.33;0.68;;;;;;;;;;4999603;28;20186;-48
2023/09/23 02:03:14;;;;;;;0.57;0.50;;;;;;;;;;5002431;28;20180;-49
2023/09/23 02:05:41;;;;;;;0.60;0.60;;;;;;;;;;5000245;28;20204;-49
2023/09/23 02:08:07;;;;;;;0.85;0.57;;;;;;;;;;5006414;28;20182;-48
2023/09/23 02:10:33;;;;;;;0.60;0.50;;;;;;;;;;4997087;28;20190;-48
2023/09/23 02:12:59;;;;;;;1.23;0.40;;;;;;;;;;4996007;28;20317;-48
2023/09/23 02:15:25;;;;;;;0.40;0.40;;;;;;;;;;4994991;28;20259;-48
2023/09/23 02:17:51;;;;;;;0.70;0.60;;;;;;;;;;5004304;28;20259;-48
2023/09/23 02:20:24;;;;;;;2.72;0.60;;;;;;;;;;4996520;28;20255;-48
2023/09/23 02:22:54;;;;;;;0.60;0.55;;;;;;;;;;4986021;28;20195;-49
2023/09/23 02:25:25;;;;;;;0.50;0.45;;;;;;;;;;5004090;28;20181;-48
2023/09/23 02:27:51;;;;;;;1.27;0.45;;;;;;;;;;4986774;28;20188;-48
2023/09/23 02:30:17;;;;;;;1.20;0.30;;;;;;;;;;4991265;28;20336;-49
2023/09/23 02:32:44;;;;;;;1.30;0.40;;;;;;;;;;4999565;28;20212;-48
2023/09/23 02:35:11;;;;;;;0.73;0.50;;;;;;;;;;5014658;28;20199;-49
2023/09/23 02:37:40;;;;;;;0.85;0.70;;;;;;;;;;5005214;28;20205;-48
2023/09/23 02:40:11;;;;;;;0.57;0.57;;;;;;;;;;5006235;28;20180;-49
2023/09/23 02:42:37;;;;;;;0.50;0.50;;;;;;;;;;5014472;28;20532;-50
2023/09/23 02:45:05;;;;;;;0.82;0.50;;;;;;;;;;5000638;28;20188;-50
2023/09/23 02:47:31;;;;;;;0.50;0.50;;;;;;;;;;4985545;28;20206;-49
2023/09/23 02:49:57;;;;;;;1.02;0.45;;;;;;;;;;5004424;28;20219;-49
2023/09/23 02:52:23;;;;;;;0.88;0.65;;;;;;;;;;5007514;28;20204;-49
2023/09/23 02:54:50;;;;;;;0.50;0.50;;;;;;;;;;5002110;28;20562;-49
2023/09/23 02:57:16;;;;;;;0.55;0.55;;;;;;;;;;4987414;28;20173;-50
2023/09/23 02:59:42;;;;;;;1.73;0.50;;;;;;;;;;5001627;28;20180;-49
2023/09/23 03:02:08;;;;;;;0.77;0.70;;;;;;;;;;4993965;28;20461;-49
2023/09/23 03:04:34;;;;;;;1.45;0.50;;;;;;;;;;5002019;28;20199;-49
2023/09/23 03:07:06;;;;;;;1.13;0.40;;;;;;;;;;5003141;28;20189;-50
2023/09/23 03:09:32;;;;;;;0.43;0.43;;;;;;;;;;4996820;28;20188;-49
2023/09/23 03:12:00;;;;;;;0.90;0.70;;;;;;;;;;5000877;28;20212;-50
2023/09/23 03:14:36;;;;;;;0.63;0.52;;;;;;;;;;4996461;28;20263;-50
2023/09/23 03:17:03;;;;;;;0.70;0.65;;;;;;;;;;4998971;28;20299;-49
2023/09/23 03:19:31;;;;;;;0.45;0.40;;;;;;;;;;4998896;28;20188;-49
2023/09/23 03:21:57;;;;;;;0.57;0.57;;;;;;;;;;5006567;28;20602;-49
2023/09/23 03:24:28;;;;;;;1.83;0.50;;;;;;;;;;5006377;28;20192;-50
2023/09/23 03:26:55;;;;;;;1.00;0.65;;;;;;;;;;4998738;28;20185;-50
2023/09/23 03:29:22;;;;;;;0.55;0.52;;;;;;;;;;4991487;28;20185;-49
2023/09/23 03:31:48;;;;;;;2.65;0.55;;;;;;;;;;4994291;28;20201;-49
2023/09/23 03:34:14;;;;;;;0.68;0.40;;;;;;;;;;5004104;28;20185;-48
2023/09/23 03:36:41;;;;;;;2.03;0.70;;;;;;;;;;5007225;28;20188;-49
2023/09/23 03:39:08;;;;;;;1.27;0.52;;;;;;;;;;5000965;28;20178;-49
2023/09/23 03:41:35;;;;;;;0.73;0.40;;;;;;;;;;5006796;28;20181;-48
2023/09/23 03:44:03;;;;;;;0.65;0.60;;;;;;;;;;4996785;28;20189;-49
2023/09/23 03:46:29;;;;;;;1.33;0.50;;;;;;;;;;5004394;28;20216;-49
2023/09/23 03:48:55;;;;;;;0.50;0.50;;;;;;;;;;5008391;28;20243;-50
2023/09/23 03:51:21;;;;;;;1.63;0.65;;;;;;;;;;5009254;28;20185;-49
2023/09/23 03:53:48;;;;;;;0.35;0.35;;;;;;;;;;5009796;28;20211;-49
2023/09/23 03:56:14;;;;;;;0.40;0.40;;;;;;;;;;4991837;28;20188;-50
2023/09/23 03:58:40;;;;;;;1.30;0.57;;;;;;;;;;5003149;28;20184;-49
2023/09/23 04:01:08;;;;;;;1.13;0.57;;;;;;;;;;4990348;28;20184;-49
2023/09/23 04:03:34;;;;;;;1.20;0.40;;;;;;;;;;5005232;28;20277;-49
2023/09/23 04:06:00;;;;;;;1.27;0.52;;;;;;;;;;5001159;28;20511;-49
2023/09/23 04:08:26;;;;;;;2.20;0.60;;;;;;;;;;5004178;28;20456;-49
2023/09/23 04:10:53;;;;;;;1.33;0.70;;;;;;;;;;5003622;28;20181;-49
2023/09/23 04:13:19;;;;;;;0.90;0.60;;;;;;;;;;5008072;28;20595;-49
2023/09/23 04:15:45;;;;;;;0.85;0.70;;;;;;;;;;5003662;28;20251;-49
2023/09/23 04:18:11;;;;;;;2.88;0.60;;;;;;;;;;5000000;28;20172;-49
2023/09/23 04:20:37;;;;;;;0.60;0.50;;;;;;;;;;4999597;28;20170;-49
2023/09/23 04:23:03;;;;;;;0.57;0.57;;;;;;;;;;4999905;28;20189;-49
2023/09/23 04:25:29;;;;;;;1.58;0.80;;;;;;;;;;5000179;28;20181;-49
2023/09/23 04:27:55;;;;;;;0.55;0.40;;;;;;;;;;5000017;28;20200;-50
2023/09/23 04:30:22;;;;;;;2.85;0.70;;;;;;;;;;4999969;28;20169;-49
2023/09/23 04:32:48;;;;;;;0.70;0.60;;;;;;;;;;4999495;28;20256;-48
2023/09/23 04:35:15;;;;;;;1.42;0.47;;;;;;;;;;4999209;28;20208;-49
2023/09/23 04:37:41;;;;;;;0.70;0.68;;;;;;;;;;4999943;28;20174;-49
2023/09/23 04:40:12;;;;;;;0.45;0.45;;;;;;;;;;4999724;28;20557;-50
2023/09/23 04:42:39;;;;;;;0.63;0.63;;;;;;;;;;4999621;28;20252;-49
2023/09/23 04:45:05;;;;;;;1.08;0.55;;;;;;;;;;4999814;28;20580;-50
2023/09/23 04:47:32;;;;;;;1.00;0.50;;;;;;;;;;4999774;28;20570;-49
2023/09/23 04:49:58;;;;;;;0.82;0.40;;;;;;;;;;4999776;28;20161;-49
2023/09/23 04:52:27;;;;;;;0.40;0.40;;;;;;;;;;4999348;28;20185;-50
2023/09/23 04:54:53;;;;;;;1.23;0.60;;;;;;;;;;4999535;28;20157;-50
2023/09/23 04:57:19;;;;;;;1.65;0.60;;;;;;;;;;4999405;28;20257;-48
2023/09/23 04:59:46;;;;;;;0.35;0.35;;;;;;;;;;4999364;28;20165;-48
2023/09/23 05:02:13;;;;;;;0.50;0.50;;;;;;;;;;4999156;28;20161;-49
2023/09/23 05:04:39;;;;;;;1.00;0.38;;;;;;;;;;4999370;28;20184;-49
2023/09/23 05:07:04;;;;;;;0.30;0.30;;;;;;;;;;4999389;28;20169;-49
2023/09/23 05:09:30;;;;;;;0.50;0.47;;;;;;;;;;4999178;28;20549;-49
2023/09/23 05:11:57;;;;;;;0.68;0.50;;;;;;;;;;4998738;28;20251;-49
2023/09/23 05:14:25;;;;;;;0.75;0.63;;;;;;;;;;4998580;28;20165;-49
2023/09/23 05:16:51;;;;;;;0.80;0.55;;;;;;;;;;4999737;28;20196;-50
2023/09/23 05:19:19;;;;;;;0.68;0.57;;;;;;;;;;5010419;28;20184;-49
2023/09/23 05:21:45;;;;;;;0.60;0.50;;;;;;;;;;5004415;28;20177;-48
2023/09/23 05:24:11;;;;;;;1.20;0.40;;;;;;;;;;5004134;28;20197;-49
2023/09/23 05:26:40;;;;;;;0.50;0.47;;;;;;;;;;4997109;28;20272;-49
2023/09/23 05:29:06;;;;;;;1.48;0.40;;;;;;;;;;5001526;28;20227;-49
2023/09/23 05:31:31;;;;;;;0.40;0.32;;;;;;;;;;5007399;28;20485;-49
2023/09/23 05:33:57;;;;;;;1.67;0.40;;;;;;;;;;5014503;28;20556;-50
2023/09/23 05:36:23;;;;;;;2.75;0.50;;;;;;;;;;4999669;28;20461;-50
2023/09/23 05:38:49;;;;;;;0.60;0.60;;;;;;;;;;5007280;28;20195;-49
2023/09/23 05:41:15;;;;;;;1.00;0.63;;;;;;;;;;4995562;28;20185;-49
2023/09/23 05:43:41;;;;;;;2.13;0.73;;;;;;;;;;4994345;28;20542;-49
2023/09/23 05:46:09;;;;;;;1.00;0.50;;;;;;;;;;5008699;28;20195;-49
2023/09/23 05:48:35;;;;;;;0.30;0.30;;;;;;;;;;5014052;28;20180;-50
2023/09/23 05:51:05;;;;;;;0.52;0.40;;;;;;;;;;5009415;28;20177;-50
2023/09/23 05:53:33;;;;;;;0.60;0.60;;;;;;;;;;5013273;28;20256;-49
2023/09/23 05:55:59;;;;;;;1.38;0.50;;;;;;;;;;5003789;28;20185;-49
2023/09/23 05:58:25;;;;;;;0.60;0.40;;;;;;;;;;4985922;28;20187;-49
2023/09/23 06:00:52;;;;;;;0.82;0.30;;;;;;;;;;5000656;28;20193;-49
2023/09/23 06:03:18;;;;;;;9.18;0.93;;;;;;;;;;4992643;28;20189;-50
2023/09/23 06:05:44;;;;;;;2.70;0.52;;;;;;;;;;4993580;28;20200;-49
2023/09/23 06:08:11;;;;;;;0.82;0.40;;;;;;;;;;4995550;28;20566;-50
2023/09/23 06:10:38;;;;;;;0.82;0.60;;;;;;;;;;5004807;28;20180;-49
2023/09/23 06:13:05;;;;;;;0.68;0.60;;;;;;;;;;5006258;28;20204;-49
2023/09/23 06:15:32;;;;;;;2.20;0.50;;;;;;;;;;5003356;28;20200;-50
2023/09/23 06:17:58;;;;;;;0.65;0.65;;;;;;;;;;5009576;28;20212;-50
2023/09/23 06:20:24;;;;;;;1.88;0.50;;;;;;;;;;4996756;28;20557;-50
2023/09/23 06:22:49;;;;;;;2.22;0.57;;;;;;;;;;5008630;28;20190;-49
2023/09/23 06:25:16;;;;;;;0.60;0.40;;;;;;;;;;4995926;28;20826;-49
2023/09/23 06:27:42;;;;;;;0.52;0.47;;;;;;;;;;4995740;28;20269;-50
2023/09/23 06:30:08;;;;;;;0.55;0.30;;;;;;;;;;4986049;28;20204;-49
2023/09/23 06:32:35;;;;;;;0.50;0.30;;;;;;;;;;5006298;28;20200;-50
2023/09/23 06:35:01;;;;;;;1.80;0.40;;;;;;;;;;5010887;28;20184;-50
2023/09/23 06:37:27;;;;;;;0.57;0.43;;;;;;;;;;4996769;28;20219;-49
2023/09/23 06:39:53;;;;;;;0.32;0.32;;;;;;;;;;4995668;28;20187;-50
2023/09/23 06:42:19;;;;;;;1.92;0.55;;;;;;;;;;5000449;28;20184;-50
2023/09/23 06:44:45;;;;;;;0.75;0.40;;;;;;;;;;4998734;28;20560;-50
2023/09/23 06:47:11;;;;;;;1.23;0.47;;;;;;;;;;4999315;28;20219;-49
2023/09/23 06:49:38;;;;;;;0.30;0.30;;;;;;;;;;4998192;28;20184;-50
2023/09/23 06:52:04;;;;;;;0.45;0.45;;;;;;;;;;5002412;28;20212;-50
2023/09/23 06:54:30;;;;;;;2.17;0.60;;;;;;;;;;5001698;28;20754;-49
2023/09/23 06:56:56;;;;;;;0.45;0.45;;;;;;;;;;4990241;28;20264;-49
2023/09/23 06:59:22;;;;;;;0.60;0.52;;;;;;;;;;4989893;28;20256;-49
2023/09/23 07:01:48;;;;;;;1.02;0.55;;;;;;;;;;4995431;28;20275;-50
2023/09/23 07:04:14;;;;;;;0.90;0.40;;;;;;;;;;4996750;28;20188;-50
2023/09/23 07:06:40;;;;;;;0.82;0.50;;;;;;;;;;5005818;28;20220;-49
2023/09/23 07:09:07;;;;;;;1.00;0.50;;;;;;;;;;4983634;28;20190;-50
2023/09/23 07:11:33;;;;;;;0.40;0.40;;;;;;;;;;5005464;28;20407;-49
2023/09/23 07:14:00;;;;;;;0.40;0.40;;;;;;;;;;5000242;28;20240;-50
2023/09/23 07:16:26;;;;;;;0.40;0.40;;;;;;;;;;5002737;28;20224;-50
2023/09/23 07:18:53;;;;;;;0.82;0.40;;;;;;;;;;4994640;28;20311;-49
2023/09/23 07:21:19;;;;;;;1.92;0.50;;;;;;;;;;4999293;28;20523;-49
2023/09/23 07:23:45;;;;;;;0.50;0.50;;;;;;;;;;4991693;28;20462;-49
2023/09/23 07:26:19;;;;;;;0.93;0.30;;;;;;;;;;4999226;28;20268;-50
2023/09/23 07:28:45;;;;;;;0.77;0.70;;;;;;;;;;4997952;28;20453;-49
2023/09/23 07:31:11;;;;;;;0.75;0.52;;;;;;;;;;5001450;28;20272;-48
2023/09/23 07:33:37;;;;;;;0.30;0.30;;;;;;;;;;5007475;28;20263;-50
2023/09/23 07:36:09;;;;;;;0.60;0.43;;;;;;;;;;4997437;28;20189;-49
2023/09/23 07:38:35;;;;;;;1.63;0.30;;;;;;;;;;5000177;28;20271;-50
2023/09/23 07:41:02;;;;;;;0.40;0.40;;;;;;;;;;5006182;28;20265;-49
2023/09/23 07:43:28;;;;;;;1.00;0.50;;;;;;;;;;4994441;28;20181;-49
2023/09/23 07:45:54;;;;;;;1.75;0.50;;;;;;;;;;5000099;28;20188;-49
2023/09/23 07:48:20;;;;;;;0.80;0.32;;;;;;;;;;5005088;28;20264;-49
2023/09/23 07:50:46;;;;;;;0.60;0.40;;;;;;;;;;4991962;28;20564;-49
2023/09/23 07:53:12;;;;;;;0.43;0.40;;;;;;;;;;4998451;28;20212;-49
2023/09/23 07:55:38;;;;;;;2.45;0.60;;;;;;;;;;4999716;28;20220;-49
2023/09/23 07:58:05;;;;;;;0.43;0.40;;;;;;;;;;4996284;28;20169;-49
2023/09/23 08:00:31;;;;;;;0.50;0.50;;;;;;;;;;4999045;28;20591;-49
2023/09/23 08:02:56;;;;;;;0.85;0.47;;;;;;;;;;5004970;28;20200;-49
2023/09/23 08:05:25;;;;;;;0.60;0.60;;;;;;;;;;4992592;28;20213;-49
2023/09/23 08:07:52;;;;;;;1.75;0.30;;;;;;;;;;5002629;28;20560;-49
2023/09/23 08:10:18;;;;;;;0.73;0.50;;;;;;;;;;4997530;28;20188;-49
2023/09/23 08:12:44;;;;;;;1.65;0.43;;;;;;;;;;5008704;28;20212;-50
2023/09/23 08:15:11;;;;;;;0.40;0.40;;;;;;;;;;4998647;28;20276;-50
2023/09/23 08:17:39;;;;;;;0.50;0.30;;;;;;;;;;5000348;28;20235;-49
2023/09/23 08:20:17;;;;;;;0.45;0.40;;;;;;;;;;5000638;28;20235;-50
2023/09/23 08:22:43;;;;;;;2.40;0.60;;;;;;;;;;5002263;28;20531;-50
2023/09/23 08:25:09;;;;;;;0.60;0.60;;;;;;;;;;4997990;28;20193;-50
2023/09/23 08:27:35;;;;;;;0.40;0.40;;;;;;;;;;5003435;28;20189;-50
2023/09/23 08:30:01;;;;;;;0.65;0.52;;;;;;;;;;5000672;28;20279;-50
2023/09/23 08:32:27;;;;;;;0.75;0.40;;;;;;;;;;5005325;28;20244;-50
2023/09/23 08:34:52;;;;;;;0.75;0.50;;;;;;;;;;5009423;28;20568;-50
2023/09/23 08:37:19;;;;;;;1.42;0.40;;;;;;;;;;5012890;28;20227;-50
2023/09/23 08:39:45;;;;;;;0.60;0.32;;;;;;;;;;5004522;28;20178;-50
2023/09/23 08:42:11;;;;;;;0.73;0.40;;;;;;;;;;4998723;28;20207;-49
2023/09/23 08:44:38;;;;;;;0.60;0.50;;;;;;;;;;4999888;28;20561;-50
2023/09/23 08:47:05;;;;;;;0.52;0.38;;;;;;;;;;5011029;28;20242;-50
2023/09/23 08:49:32;;;;;;;0.80;0.60;;;;;;;;;;5011857;28;20622;-49
2023/09/23 08:51:58;;;;;;;0.82;0.50;;;;;;;;;;5004288;28;20244;-49
2023/09/23 08:54:28;;;;;;;0.50;0.50;;;;;;;;;;4989046;28;20178;-50
2023/09/23 08:56:54;;;;;;;0.52;0.40;;;;;;;;;;4996655;28;20234;-49
2023/09/23 08:59:20;;;;;;;1.38;0.65;;;;;;;;;;4996444;28;21608;-50
2023/09/23 09:01:46;;;;;;;1.05;0.40;;;;;;;;;;5002293;28;20210;-50
2023/09/23 09:04:14;;;;;;;0.45;0.45;;;;;;;;;;5007586;28;20587;-50
2023/09/23 09:06:53;;;;;;;1.08;0.50;;;;;;;;;;4993351;28;20182;-50
2023/09/23 09:09:19;;;;;;;0.90;0.50;;;;;;;;;;4997365;28;20184;-50
2023/09/23 09:11:46;;;;;;;1.15;0.50;;;;;;;;;;5003739;28;20216;-48
2023/09/23 09:14:13;;;;;;;0.50;0.50;;;;;;;;;;5009518;28;20267;-50
2023/09/23 09:16:39;;;;;;;0.43;0.43;;;;;;;;;;5001253;28;20185;-48
2023/09/23 09:19:05;;;;;;;0.95;0.60;;;;;;;;;;4995165;28;20181;-48
2023/09/23 09:21:32;;;;;;;2.22;0.45;;;;;;;;;;4999084;28;20189;-50
2023/09/23 09:23:58;;;;;;;0.32;0.30;;;;;;;;;;5004428;28;20220;-50
2023/09/23 09:26:24;;;;;;;0.90;0.50;;;;;;;;;;4996942;28;20196;-50
2023/09/23 09:28:51;;;;;;;0.90;0.63;;;;;;;;;;5009852;28;20326;-50
2023/09/23 09:31:18;;;;;;;0.45;0.40;;;;;;;;;;5003131;28;20193;-50
2023/09/23 09:33:49;;;;;;;0.35;0.35;;;;;;;;;;5011385;28;20216;-50
2023/09/23 09:36:19;;;;;;;0.45;0.43;;;;;;;;;;5007547;28;20184;-50
2023/09/23 09:38:50;;;;;;;0.30;0.30;;;;;;;;;;5005587;28;20180;-50
2023/09/23 09:41:21;;;;;;;0.57;0.50;;;;;;;;;;4996278;28;20403;-49
2023/09/23 09:43:48;;;;;;;0.40;0.40;;;;;;;;;;5000471;28;20560;-50
2023/09/23 09:46:14;;;;;;;0.43;0.43;;;;;;;;;;5004555;28;20173;-50
2023/09/23 09:48:41;;;;;;;0.68;0.60;;;;;;;;;;4994668;28;20384;-50
2023/09/23 09:51:08;;;;;;;0.68;0.50;;;;;;;;;;4999044;28;20189;-50
2023/09/23 09:53:36;;;;;;;2.03;0.90;;;;;;;;;;5003722;28;20180;-50
2023/09/23 09:56:04;;;;;;;1.35;0.80;;;;;;;;;;5000382;28;20229;-51
2023/09/23 09:58:41;;;;;;;0.98;0.45;;;;;;;;;;4996902;28;20473;-50
2023/09/23 10:01:13;;;;;;;1.08;0.60;;;;;;;;;;5000424;28;20491;-51
2023/09/23 10:03:42;;;;;;;1.52;0.60;;;;;;;;;;5004410;28;20596;-51
2023/09/23 10:06:09;;;;;;;1.23;0.60;;;;;;;;;;5006330;28;20631;-48
2023/09/23 10:08:36;;;;;;;0.60;0.50;;;;;;;;;;4992498;28;20229;-49
2023/09/23 10:11:07;;;;;;;1.65;0.60;;;;;;;;;;5001905;28;20564;-49
2023/09/23 10:13:33;;;;;;;0.93;0.70;;;;;;;;;;5000872;28;20268;-50
2023/09/23 10:16:19;;;;;;;0.68;0.40;;;;;;;;;;5003824;28;20268;-49
2023/09/23 10:18:53;;;;;;;0.55;0.50;;;;;;;;;;5010907;28;20543;-49
2023/09/23 10:21:23;;;;;;;0.95;0.60;;;;;;;;;;4999980;28;20178;-49
2023/09/23 10:23:51;;;;;;;0.70;0.60;;;;;;;;;;5004349;28;20215;-49
2023/09/23 10:26:18;;;;;;;2.78;0.57;;;;;;;;;;5007296;28;20177;-48
2023/09/23 10:28:55;;;;;;;1.02;0.50;;;;;;;;;;4993602;28;20193;-51
2023/09/23 10:31:25;;;;;;;0.70;0.50;;;;;;;;;;5023082;28;20176;-49
2023/09/23 10:33:51;;;;;;;0.57;0.40;;;;;;;;;;5003161;28;20177;-50
2023/09/23 10:36:19;;;;;;;0.57;0.47;;;;;;;;;;5008748;28;20538;-49
2023/09/23 10:38:45;;;;;;;0.50;0.32;;;;;;;;;;4990422;28;20177;-50
2023/09/23 10:41:11;;;;;;;0.63;0.63;;;;;;;;;;4997572;28;20293;-49
2023/09/23 10:43:37;;;;;;;0.50;0.50;;;;;;;;;;4992423;28;20189;-50
2023/09/23 10:46:05;;;;;;;1.77;0.73;;;;;;;;;;5001469;28;20192;-52
2023/09/23 10:48:31;;;;;;;0.77;0.57;;;;;;;;;;4997473;28;20172;-48
2023/09/23 10:50:57;;;;;;;0.47;0.47;;;;;;;;;;4988058;28;20187;-49
2023/09/23 10:53:25;;;;;;;1.25;0.52;;;;;;;;;;4988831;28;20255;-49
2023/09/23 10:55:51;;;;;;;1.48;0.60;;;;;;;;;;5001151;28;20197;-51
2023/09/23 10:58:17;;;;;;;0.95;0.80;;;;;;;;;;4989972;28;20181;-48
2023/09/23 11:00:43;;;;;;;1.25;0.60;;;;;;;;;;4999141;28;20213;-49
2023/09/23 11:03:15;;;;;;;2.17;0.50;;;;;;;;;;4990499;28;20195;-51
2023/09/23 11:05:43;;;;;;;0.50;0.50;;;;;;;;;;4987232;28;20188;-49
2023/09/23 11:08:10;;;;;;;0.55;0.50;;;;;;;;;;4992889;28;20284;-49
2023/09/23 11:10:43;;;;;;;1.50;0.60;;;;;;;;;;4988722;28;20293;-49
2023/09/23 11:13:10;;;;;;;0.95;0.60;;;;;;;;;;4992409;28;20208;-49
2023/09/23 11:15:44;;;;;;;0.68;0.55;;;;;;;;;;4990794;28;20177;-50
2023/09/23 11:18:11;;;;;;;0.75;0.65;;;;;;;;;;4998715;28;20183;-50
2023/09/23 11:20:41;;;;;;;0.95;0.55;;;;;;;;;;4992981;28;20189;-50
2023/09/23 11:23:09;;;;;;;1.15;0.63;;;;;;;;;;4996037;28;20192;-50
2023/09/23 11:25:36;;;;;;;1.15;0.70;;;;;;;;;;4988443;28;20193;-50
2023/09/23 11:28:02;;;;;;;0.60;0.60;;;;;;;;;;4994783;28;20210;-49
2023/09/23 11:30:29;;;;;;;0.50;0.50;;;;;;;;;;4995251;28;20681;-49
2023/09/23 11:32:56;;;;;;;0.40;0.40;;;;;;;;;;4993316;28;20209;-49
2023/09/23 11:35:22;;;;;;;1.35;0.52;;;;;;;;;;4989487;28;20244;-48
2023/09/23 11:37:49;;;;;;;0.80;0.45;;;;;;;;;;5000885;28;20558;-49
2023/09/23 11:40:15;;;;;;;0.60;0.60;;;;;;;;;;5003630;28;20549;-49
2023/09/23 11:42:41;;;;;;;0.75;0.65;;;;;;;;;;5005048;28;20181;-48
2023/09/23 11:45:08;;;;;;;0.75;0.60;;;;;;;;;;5005857;28;20183;-49
2023/09/23 11:47:34;;;;;;;0.50;0.50;;;;;;;;;;5005858;28;20450;-49
2023/09/23 11:50:00;;;;;;;0.60;0.50;;;;;;;;;;5002038;28;20185;-50
2023/09/23 11:52:27;;;;;;;0.85;0.70;;;;;;;;;;4990160;28;20564;-50
2023/09/23 11:54:53;;;;;;;2.00;0.60;;;;;;;;;;5005700;28;20208;-50
2023/09/23 11:57:19;;;;;;;2.17;0.75;;;;;;;;;;4989130;28;20195;-50
2023/09/23 11:59:45;;;;;;;2.03;0.93;;;;;;;;;;4997562;28;20445;-50
2023/09/23 12:02:11;;;;;;;1.65;0.50;;;;;;;;;;5003251;28;20170;-50
2023/09/23 12:04:38;;;;;;;0.47;0.47;;;;;;;;;;5005230;28;20172;-49
2023/09/23 12:07:06;;;;;;;1.50;0.60;;;;;;;;;;4995669;28;20185;-49
2023/09/23 12:09:34;;;;;;;1.65;0.73;;;;;;;;;;4991159;28;20456;-49
2023/09/23 12:12:00;;;;;;;0.70;0.68;;;;;;;;;;4999276;28;20288;-50
2023/09/23 12:14:26;;;;;;;1.00;0.52;;;;;;;;;;5004654;28;20174;-50
2023/09/23 12:16:52;;;;;;;0.65;0.52;;;;;;;;;;5001359;28;20221;-49
2023/09/23 12:19:18;;;;;;;0.73;0.63;;;;;;;;;;5010001;28;20177;-49
2023/09/23 12:21:44;;;;;;;2.85;1.58;;;;;;;;;;5000740;28;20199;-49
2023/09/23 12:24:10;;;;;;;13.23;3.97;;;;;;;;;;4993697;28;20284;-50
2023/09/23 12:26:36;;;;;;;6.68;2.53;;;;;;;;;;5005914;28;20216;-49
2023/09/23 12:29:02;;;;;;;3.33;1.67;;;;;;;;;;4995611;28;20244;-50
2023/09/23 12:31:29;;;;;;;2.15;1.42;;;;;;;;;;4990784;28;20223;-50
2023/09/23 12:33:55;;;;;;;2.78;1.23;;;;;;;;;;4989105;28;20489;-49
2023/09/23 12:36:21;;;;;;;3.92;1.08;;;;;;;;;;5012577;28;20234;-50
2023/09/23 12:38:47;;;;;;;1.33;0.88;;;;;;;;;;5000294;28;20182;-50
2023/09/23 12:41:14;;;;;;;1.60;0.98;;;;;;;;;;4996488;28;20191;-50
2023/09/23 12:43:40;;;;;;;1.83;0.98;;;;;;;;;;4994285;28;20232;-50
2023/09/23 12:46:06;;;;;;;2.90;0.88;;;;;;;;;;5011194;28;20192;-53
2023/09/23 12:48:32;;;;;;;1.45;0.80;;;;;;;;;;5005795;28;20504;-49
2023/09/23 12:50:58;;;;;;;2.90;0.93;;;;;;;;;;4992177;28;20181;-49
2023/09/23 12:53:25;;;;;;;5.22;0.70;;;;;;;;;;4997354;28;20584;-50
2023/09/23 12:55:51;;;;;;;2.70;0.63;;;;;;;;;;4995551;28;20211;-50
2023/09/23 12:58:17;;;;;;;2.47;0.88;;;;;;;;;;5003658;28;20264;-49
2023/09/23 13:00:43;;;;;;;0.60;0.50;;;;;;;;;;5001350;28;20177;-49
2023/09/23 13:03:10;;;;;;;1.02;0.70;;;;;;;;;;5004076;28;20507;-49
2023/09/23 13:05:36;;;;;;;1.17;0.75;;;;;;;;;;4998771;28;20194;-49
2023/09/23 13:08:05;;;;;;;0.85;0.70;;;;;;;;;;5003277;28;20192;-49
2023/09/23 13:10:31;;;;;;;1.35;0.50;;;;;;;;;;4991785;28;20228;-49
2023/09/23 13:12:57;;;;;;;1.55;0.70;;;;;;;;;;4996113;28;20204;-48
2023/09/23 13:15:23;;;;;;;1.27;0.70;;;;;;;;;;5003367;28;20203;-49
2023/09/23 13:17:49;;;;;;;1.02;0.75;;;;;;;;;;4992306;28;20469;-49
2023/09/23 13:20:15;;;;;;;1.00;0.60;;;;;;;;;;4999361;28;20188;-49
2023/09/23 13:22:41;;;;;;;1.90;0.50;;;;;;;;;;5003221;28;20181;-49
2023/09/23 13:25:07;;;;;;;1.52;0.60;;;;;;;;;;5007713;28;20189;-49
2023/09/23 13:27:33;;;;;;;1.05;0.77;;;;;;;;;;4995767;28;20188;-49
2023/09/23 13:29:59;;;;;;;1.02;0.75;;;;;;;;;;5003995;28;20201;-49
2023/09/23 13:32:25;;;;;;;1.17;0.65;;;;;;;;;;5003539;28;20213;-48
2023/09/23 13:34:51;;;;;;;1.45;0.70;;;;;;;;;;5004760;28;20184;-49
2023/09/23 13:37:17;;;;;;;1.67;0.80;;;;;;;;;;4999624;28;20188;-48
2023/09/23 13:39:43;;;;;;;1.40;0.68;;;;;;;;;;5007531;28;20203;-48
2023/09/23 13:42:09;;;;;;;0.80;0.47;;;;;;;;;;4996346;28;20193;-49
2023/09/23 13:44:35;;;;;;;1.17;0.65;;;;;;;;;;4998316;28;20272;-48
2023/09/23 13:47:01;;;;;;;1.20;0.50;;;;;;;;;;4999688;28;20184;-48
2023/09/23 13:49:27;;;;;;;0.63;0.55;;;;;;;;;;4988899;28;20195;-49
2023/09/23 13:51:53;;;;;;;1.98;0.70;;;;;;;;;;4992611;28;20220;-48
2023/09/23 13:54:19;;;;;;;0.80;0.60;;;;;;;;;;5005714;28;20223;-49
2023/09/23 13:56:45;;;;;;;0.73;0.60;;;;;;;;;;5004602;28;20192;-49
2023/09/23 13:59:12;;;;;;;0.98;0.55;;;;;;;;;;4998282;28;20186;-49
2023/09/23 14:01:38;;;;;;;1.08;0.50;;;;;;;;;;5004778;28;20176;-49
2023/09/23 14:04:05;;;;;;;0.65;0.50;;;;;;;;;;5008517;28;20235;-48
2023/09/23 14:06:31;;;;;;;1.48;0.82;;;;;;;;;;5000523;28;20563;-49
2023/09/23 14:08:57;;;;;;;1.88;0.75;;;;;;;;;;4998729;28;20189;-53
2023/09/23 14:11:24;;;;;;;1.67;0.50;;;;;;;;;;4995285;28;20234;-48
2023/09/23 14:13:50;;;;;;;3.72;0.70;;;;;;;;;;5001281;28;20456;-49
2023/09/23 14:16:16;;;;;;;0.60;0.60;;;;;;;;;;5001732;28;20188;-49
2023/09/23 14:18:42;;;;;;;2.17;0.90;;;;;;;;;;5006998;28;20188;-48
2023/09/23 14:21:08;;;;;;;0.52;0.50;;;;;;;;;;4995227;28;20180;-48
2023/09/23 14:23:34;;;;;;;2.05;0.63;;;;;;;;;;5003552;28;20535;-49
2023/09/23 14:26:00;;;;;;;1.45;0.80;;;;;;;;;;5004318;28;20189;-50
2023/09/23 14:28:26;;;;;;;3.20;0.60;;;;;;;;;;4994498;28;20213;-49
2023/09/23 14:30:52;;;;;;;1.35;0.68;;;;;;;;;;4999007;28;20208;-49
2023/09/23 14:33:18;;;;;;;1.75;0.70;;;;;;;;;;5004358;28;20482;-49
2023/09/23 14:35:44;;;;;;;1.38;0.60;;;;;;;;;;5002102;28;20234;-50
2023/09/23 14:38:10;;;;;;;0.80;0.47;;;;;;;;;;5004200;28;20566;-50
2023/09/23 14:40:36;;;;;;;1.60;0.70;;;;;;;;;;5015214;28;20175;-50